createdAt,value
2017-12-31T04:46:38.179Z,1000.59
2017-12-31T04:46:38.750Z,1000.58
2017-12-31T04:46:39.355Z,1000.56
2017-12-31T04:46:39.947Z,1000.55
2017-12-31T04:46:40.553Z,1000.60
2017-12-31T04:46:41.149Z,1000.59
2017-12-31T04:46:41.750Z,1000.57
2017-12-31T04:46:42.346Z,1000.60
2017-12-31T06:07:43.529Z,999.83
2017-12-31T06:07:44.097Z,999.86
2017-12-31T06:07:44.695Z,999.86
2017-12-31T06:07:45.311Z,999.84
2017-12-31T06:07:45.895Z,999.84
2017-12-31T06:07:46.504Z,999.86
2017-12-31T06:07:47.095Z,999.81
2017-12-31T06:07:47.696Z,999.81
2017-12-31T06:07:48.296Z,999.84
2017-12-31T06:07:48.893Z,999.82
2017-12-31T06:07:49.495Z,999.87
2017-12-31T06:07:50.096Z,999.81
2017-12-31T06:11:08.426Z,999.77
2017-12-31T06:11:08.935Z,999.72
2017-12-31T06:12:04.470Z,999.70
2017-12-31T06:12:05.034Z,999.72
2017-12-31T06:12:05.632Z,999.72
2017-12-31T06:12:06.232Z,999.73
2017-12-31T06:12:06.831Z,999.70
2017-12-31T06:12:07.431Z,999.70
2017-12-31T06:13:12.943Z,999.74
2017-12-31T06:13:13.539Z,999.77
2017-12-31T06:13:14.137Z,999.74
2017-12-31T06:13:14.738Z,999.73
2017-12-31T06:13:15.338Z,999.72
2017-12-31T06:13:15.943Z,999.71
2017-12-31T06:13:16.543Z,999.76
2017-12-31T06:14:11.518Z,999.75
2017-12-31T06:14:12.112Z,999.75
2017-12-31T06:14:12.712Z,999.73
2017-12-31T06:14:13.311Z,999.74
2017-12-31T06:14:13.910Z,999.75
2017-12-31T06:14:14.511Z,999.74
2017-12-31T06:15:10.094Z,999.76
2017-12-31T06:15:10.685Z,999.71
2017-12-31T06:15:11.288Z,999.72
2017-12-31T06:15:11.884Z,999.72
2017-12-31T06:15:12.485Z,999.72
2017-12-31T06:15:13.086Z,999.72
2017-12-31T06:17:34.235Z,999.72
2017-12-31T06:17:34.740Z,999.67
2017-12-31T06:17:35.339Z,999.66
2017-12-31T06:18:39.501Z,999.76
2017-12-31T06:18:40.096Z,999.77
2017-12-31T06:18:40.696Z,999.77
2017-12-31T06:18:41.294Z,999.76
2017-12-31T06:18:41.896Z,999.79
2017-12-31T06:18:42.495Z,999.73
2017-12-31T06:18:43.093Z,999.76
2017-12-31T06:18:43.697Z,999.77
2017-12-31T06:19:40.226Z,999.75
2017-12-31T06:19:40.819Z,999.75
2017-12-31T06:19:41.423Z,999.75
2017-12-31T06:21:01.017Z,999.74
2017-12-31T06:21:01.614Z,999.74
2017-12-31T06:21:02.214Z,999.73
2017-12-31T06:21:02.813Z,999.70
2017-12-31T06:21:03.457Z,999.72
2017-12-31T06:21:04.013Z,999.73
2017-12-31T06:21:04.612Z,999.71
2017-12-31T06:21:05.214Z,999.72
2017-12-31T06:21:05.812Z,999.71
2017-12-31T06:21:06.413Z,999.70
2017-12-31T06:21:07.016Z,999.70
2017-12-31T06:21:07.613Z,999.73
2017-12-31T06:21:08.212Z,999.72
2017-12-31T06:21:08.812Z,999.69
2017-12-31T06:21:09.411Z,999.71
2017-12-31T06:22:06.452Z,999.72
2017-12-31T06:22:07.047Z,999.74
2017-12-31T06:22:07.649Z,999.72
2017-12-31T06:23:01.690Z,999.69
2017-12-31T06:23:02.241Z,999.68
2017-12-31T06:23:02.842Z,999.68
2017-12-31T06:23:03.441Z,999.70
2017-12-31T06:23:04.051Z,999.67
2017-12-31T06:23:04.640Z,999.73
2017-12-31T06:23:05.240Z,999.68
2017-12-31T06:23:59.297Z,999.67
2017-12-31T06:23:59.894Z,999.67
2017-12-31T06:24:00.493Z,999.69
2017-12-31T06:24:01.093Z,999.66
2017-12-31T06:24:01.694Z,999.67
2017-12-31T06:24:02.295Z,999.66
2017-12-31T06:24:02.893Z,999.67
2017-12-31T06:24:57.971Z,999.61
2017-12-31T06:24:58.567Z,999.69
2017-12-31T06:24:59.167Z,999.67
2017-12-31T06:24:59.772Z,999.66
2017-12-31T06:25:00.368Z,999.65
2017-12-31T06:25:00.967Z,999.64
2017-12-31T06:25:57.981Z,999.67
2017-12-31T06:25:58.575Z,999.68
2017-12-31T06:25:59.175Z,999.69
2017-12-31T06:26:53.173Z,999.72
2017-12-31T06:26:53.768Z,999.68
2017-12-31T06:26:54.367Z,999.71
2017-12-31T06:26:54.967Z,999.71
2017-12-31T06:26:55.569Z,999.73
2017-12-31T06:26:56.168Z,999.72
2017-12-31T06:26:56.769Z,999.69
2017-12-31T06:27:51.748Z,999.67
2017-12-31T06:27:52.343Z,999.67
2017-12-31T06:27:52.941Z,999.69
2017-12-31T06:27:53.541Z,999.72
2017-12-31T06:27:54.142Z,999.71
2017-12-31T06:27:54.741Z,999.67
2017-12-31T06:28:51.881Z,999.62
2017-12-31T06:28:52.452Z,999.63
2017-12-31T06:28:53.052Z,999.64
2017-12-31T06:29:47.052Z,999.61
2017-12-31T06:29:47.646Z,999.60
2017-12-31T06:29:48.247Z,999.60
2017-12-31T06:29:48.846Z,999.60
2017-12-31T06:29:49.445Z,999.59
2017-12-31T06:29:50.046Z,999.63
2017-12-31T06:29:50.645Z,999.63
2017-12-31T06:30:45.622Z,999.62
2017-12-31T06:30:46.219Z,999.64
2017-12-31T06:30:46.817Z,999.61
2017-12-31T06:30:47.418Z,999.62
2017-12-31T06:30:48.019Z,999.62
2017-12-31T06:30:48.625Z,999.58
2017-12-31T06:31:43.173Z,999.55
2017-12-31T06:31:43.770Z,999.56
2017-12-31T06:31:44.368Z,999.57
2017-12-31T06:31:44.970Z,999.55
2017-12-31T06:31:45.568Z,999.57
2017-12-31T06:31:46.169Z,999.55
2017-12-31T06:31:46.768Z,999.60
2017-12-31T06:32:45.330Z,999.55
2017-12-31T06:32:45.926Z,999.55
2017-12-31T06:32:46.533Z,999.57
2017-12-31T06:32:47.125Z,999.53
2017-12-31T06:32:47.725Z,999.54
2017-12-31T06:32:48.325Z,999.52
2017-12-31T06:32:48.925Z,999.54
2017-12-31T06:32:49.526Z,999.54
2017-12-31T06:32:50.124Z,999.53
2017-12-31T06:32:50.724Z,999.61
2017-12-31T06:32:51.324Z,999.55
2017-12-31T06:32:51.923Z,999.52
2017-12-31T06:32:52.524Z,999.49
2017-12-31T06:32:53.124Z,999.51
2017-12-31T06:32:53.727Z,999.53
2017-12-31T06:32:54.323Z,999.57
2017-12-31T06:34:09.427Z,999.56
2017-12-31T06:34:09.999Z,999.55
2017-12-31T06:34:10.599Z,999.50
2017-12-31T06:34:11.199Z,999.53
2017-12-31T06:34:11.798Z,999.52
2017-12-31T06:34:12.397Z,999.53
2017-12-31T06:35:07.874Z,999.53
2017-12-31T06:35:08.471Z,999.52
2017-12-31T06:35:09.068Z,999.55
2017-12-31T06:35:09.669Z,999.52
2017-12-31T06:35:10.266Z,999.53
2017-12-31T06:35:10.866Z,999.55
2017-12-31T06:36:07.983Z,999.49
2017-12-31T06:36:08.581Z,999.50
2017-12-31T06:36:09.177Z,999.50
2017-12-31T06:37:05.734Z,999.49
2017-12-31T06:37:06.332Z,999.50
2017-12-31T06:37:06.932Z,999.52
2017-12-31T06:38:05.436Z,999.48
2017-12-31T06:38:06.031Z,999.47
2017-12-31T06:38:06.633Z,999.47
2017-12-31T06:38:07.230Z,999.43
2017-12-31T06:38:07.830Z,999.46
2017-12-31T06:38:08.429Z,999.44
2017-12-31T06:38:09.030Z,999.44
2017-12-31T06:38:09.630Z,999.44
2017-12-31T06:38:10.229Z,999.46
2017-12-31T06:38:10.829Z,999.42
2017-12-31T06:38:11.435Z,999.43
2017-12-31T06:38:12.030Z,999.45
2017-12-31T06:38:12.630Z,999.45
2017-12-31T06:38:13.228Z,999.42
2017-12-31T06:38:13.829Z,999.41
2017-12-31T06:38:14.428Z,999.45
2017-12-31T07:06:41.247Z,999.19
2017-12-31T07:06:41.830Z,999.20
2017-12-31T07:06:42.414Z,999.24
2017-12-31T07:06:43.011Z,999.22
2017-12-31T07:06:43.610Z,999.18
2017-12-31T07:06:44.211Z,999.21
2017-12-31T07:06:44.811Z,999.20
2017-12-31T07:06:45.412Z,999.22
2017-12-31T07:06:46.010Z,999.21
2017-12-31T07:06:46.610Z,999.23
2017-12-31T07:07:55.193Z,999.16
2017-12-31T07:07:55.788Z,999.16
2017-12-31T07:07:56.387Z,999.18
2017-12-31T07:07:56.990Z,999.14
2017-12-31T07:07:57.587Z,999.15
2017-12-31T07:07:58.187Z,999.14
2017-12-31T07:07:58.787Z,999.18
2017-12-31T07:07:59.389Z,999.17
2017-12-31T07:07:59.989Z,999.15
2017-12-31T07:08:00.587Z,999.13
2017-12-31T07:08:01.188Z,999.18
2017-12-31T07:08:01.788Z,999.16
2017-12-31T07:08:02.386Z,999.12
2017-12-31T07:08:02.988Z,999.11
2017-12-31T07:08:03.588Z,999.13
2017-12-31T07:08:04.186Z,999.12
2017-12-31T07:08:58.169Z,999.13
2017-12-31T07:08:58.766Z,999.11
2017-12-31T07:08:59.369Z,999.09
2017-12-31T07:08:59.964Z,999.13
2017-12-31T07:09:00.564Z,999.12
2017-12-31T07:09:01.163Z,999.08
2017-12-31T07:09:01.763Z,999.09
2017-12-31T07:09:58.277Z,999.13
2017-12-31T07:09:58.875Z,999.12
2017-12-31T07:09:59.474Z,999.09
2017-12-31T07:11:03.133Z,999.11
2017-12-31T07:11:03.695Z,999.11
2017-12-31T07:11:04.294Z,999.13
2017-12-31T07:11:04.893Z,999.10
2017-12-31T07:11:05.495Z,999.12
2017-12-31T07:11:06.091Z,999.11
2017-12-31T07:11:06.694Z,999.11
2017-12-31T07:11:07.292Z,999.14
2017-12-31T07:12:11.401Z,999.11
2017-12-31T07:12:11.997Z,999.09
2017-12-31T07:12:12.597Z,999.11
2017-12-31T07:12:13.203Z,999.11
2017-12-31T07:12:13.798Z,999.08
2017-12-31T07:12:14.397Z,999.06
2017-12-31T07:12:14.995Z,999.12
2017-12-31T07:13:09.974Z,999.12
2017-12-31T07:13:10.574Z,999.10
2017-12-31T07:13:11.170Z,999.09
2017-12-31T07:13:11.769Z,999.08
2017-12-31T07:13:12.370Z,999.09
2017-12-31T07:13:12.971Z,999.08
2017-12-31T07:14:10.088Z,999.04
2017-12-31T07:14:10.678Z,999.09
2017-12-31T07:14:11.282Z,999.08
2017-12-31T07:15:14.904Z,999.03
2017-12-31T07:15:15.500Z,999.09
2017-12-31T07:15:16.100Z,999.09
2017-12-31T07:15:16.700Z,999.07
2017-12-31T07:15:17.299Z,999.05
2017-12-31T07:15:17.900Z,999.08
2017-12-31T07:15:18.509Z,999.07
2017-12-31T07:15:19.099Z,999.11
2017-12-31T07:16:13.192Z,999.02
2017-12-31T07:16:13.766Z,999.07
2017-12-31T07:16:14.367Z,999.09
2017-12-31T07:16:14.966Z,999.07
2017-12-31T07:16:15.565Z,999.11
2017-12-31T07:16:16.165Z,999.07
2017-12-31T07:16:16.764Z,999.08
2017-12-31T07:17:17.783Z,999.05
2017-12-31T07:17:18.380Z,999.06
2017-12-31T07:17:18.982Z,999.07
2017-12-31T07:17:19.598Z,999.08
2017-12-31T07:17:20.180Z,999.09
2017-12-31T07:17:20.802Z,999.07
2017-12-31T07:17:21.379Z,999.10
2017-12-31T07:17:21.982Z,999.05
2017-12-31T07:17:22.578Z,999.09
2017-12-31T07:17:23.179Z,999.06
2017-12-31T07:17:23.779Z,999.07
2017-12-31T07:17:24.378Z,999.08
2017-12-31T07:18:18.407Z,999.06
2017-12-31T07:18:19.004Z,999.09
2017-12-31T07:18:19.605Z,999.08
2017-12-31T07:18:20.201Z,999.07
2017-12-31T07:18:20.807Z,999.08
2017-12-31T07:18:21.406Z,999.08
2017-12-31T07:18:22.000Z,999.06
2017-12-31T07:19:16.057Z,999.05
2017-12-31T07:19:16.652Z,999.06
2017-12-31T07:19:17.253Z,999.04
2017-12-31T07:19:17.854Z,999.10
2017-12-31T07:19:18.454Z,999.05
2017-12-31T07:19:19.054Z,999.04
2017-12-31T07:19:19.653Z,999.01
2017-12-31T07:20:16.166Z,999.05
2017-12-31T07:20:16.763Z,999.01
2017-12-31T07:20:17.361Z,999.07
2017-12-31T07:21:11.400Z,999.07
2017-12-31T07:21:11.957Z,999.09
2017-12-31T07:21:12.555Z,999.05
2017-12-31T07:21:13.155Z,999.07
2017-12-31T07:21:13.766Z,999.02
2017-12-31T07:21:14.358Z,999.08
2017-12-31T07:21:14.960Z,999.05
2017-12-31T07:22:26.012Z,999.08
2017-12-31T07:22:26.607Z,999.09
2017-12-31T07:22:27.211Z,999.05
2017-12-31T07:22:27.806Z,999.06
2017-12-31T07:22:28.417Z,999.08
2017-12-31T07:22:29.006Z,999.07
2017-12-31T07:22:29.605Z,999.07
2017-12-31T07:22:30.205Z,999.09
2017-12-31T07:22:30.805Z,999.06
2017-12-31T07:22:31.405Z,999.07
2017-12-31T07:22:32.004Z,999.09
2017-12-31T07:22:32.604Z,999.08
2017-12-31T07:25:14.927Z,999.06
2017-12-31T07:25:15.524Z,999.05
2017-12-31T07:25:16.120Z,999.07
2017-12-31T07:25:16.719Z,999.06
2017-12-31T07:25:17.318Z,999.09
2017-12-31T07:25:17.917Z,999.05
2017-12-31T07:25:18.518Z,999.08
2017-12-31T07:25:19.120Z,999.06
2017-12-31T07:25:19.724Z,999.07
2017-12-31T07:25:20.319Z,999.07
2017-12-31T07:28:42.693Z,999.02
2017-12-31T07:28:43.255Z,999.00
2017-12-31T07:28:43.854Z,999.01
2017-12-31T07:28:44.451Z,999.02
2017-12-31T07:28:45.053Z,999.00
2017-12-31T07:28:45.655Z,999.02
2017-12-31T07:28:46.262Z,999.00
2017-12-31T07:28:46.854Z,999.03
2017-12-31T07:28:47.451Z,999.00
2017-12-31T07:28:48.052Z,999.01
2017-12-31T07:28:48.651Z,998.98
2017-12-31T07:28:49.253Z,999.01
2017-12-31T07:30:27.297Z,998.93
2017-12-31T07:30:27.892Z,998.92
2017-12-31T07:30:28.490Z,998.90
2017-12-31T07:30:29.091Z,998.92
2017-12-31T07:30:29.691Z,998.92
2017-12-31T07:30:30.289Z,998.88
2017-12-31T07:30:30.891Z,998.91
2017-12-31T07:30:31.492Z,998.87
2017-12-31T07:30:32.090Z,998.89
2017-12-31T07:30:32.688Z,998.96
2017-12-31T07:30:33.291Z,998.90
2017-12-31T07:30:33.893Z,998.93
2017-12-31T07:30:34.489Z,998.94
2017-12-31T07:30:35.088Z,998.89
2017-12-31T07:30:35.692Z,998.89
2017-12-31T07:30:36.289Z,998.93
2017-12-31T07:30:36.888Z,998.93
2017-12-31T07:31:30.888Z,998.92
2017-12-31T07:31:31.483Z,998.91
2017-12-31T07:31:32.084Z,998.91
2017-12-31T07:31:32.683Z,998.93
2017-12-31T07:31:33.285Z,998.90
2017-12-31T07:31:33.881Z,998.88
2017-12-31T07:31:34.482Z,998.93
2017-12-31T07:34:56.868Z,998.91
2017-12-31T07:34:57.417Z,998.92
2017-12-31T07:34:58.028Z,998.90
2017-12-31T07:34:58.621Z,998.92
2017-12-31T07:34:59.234Z,998.90
2017-12-31T07:34:59.822Z,998.89
2017-12-31T07:35:00.415Z,998.92
2017-12-31T07:35:01.017Z,998.90
2017-12-31T07:35:01.638Z,998.93
2017-12-31T07:35:02.216Z,998.92
2017-12-31T07:36:03.273Z,998.91
2017-12-31T07:36:03.888Z,998.88
2017-12-31T07:36:04.469Z,998.90
2017-12-31T07:36:05.068Z,998.90
2017-12-31T07:36:05.670Z,998.85
2017-12-31T07:36:06.267Z,998.88
2017-12-31T07:36:06.868Z,998.92
2017-12-31T07:36:07.467Z,998.92
2017-12-31T07:36:08.067Z,998.93
2017-12-31T07:36:08.668Z,998.91
2017-12-31T07:36:09.268Z,998.89
2017-12-31T07:36:09.867Z,998.89
2017-12-31T07:37:04.918Z,998.90
2017-12-31T07:37:05.514Z,998.89
2017-12-31T07:37:06.115Z,998.90
2017-12-31T07:37:06.714Z,998.93
2017-12-31T07:37:07.313Z,998.94
2017-12-31T07:37:07.917Z,998.90
2017-12-31T07:38:07.003Z,998.87
2017-12-31T07:38:07.572Z,998.92
2017-12-31T07:38:08.168Z,998.91
2017-12-31T07:38:08.768Z,998.89
2017-12-31T07:38:09.369Z,998.90
2017-12-31T07:38:09.969Z,998.89
2017-12-31T07:38:10.568Z,998.89
2017-12-31T07:38:11.168Z,998.87
2017-12-31T07:38:11.767Z,998.84
2017-12-31T07:38:12.367Z,998.87
2017-12-31T07:38:12.967Z,998.84
2017-12-31T07:38:13.568Z,998.88
2017-12-31T07:38:14.170Z,998.88
2017-12-31T07:38:14.766Z,998.88
2017-12-31T07:38:15.368Z,998.88
2017-12-31T07:38:15.968Z,998.88
2017-12-31T07:39:34.527Z,998.84
2017-12-31T07:39:35.126Z,998.85
2017-12-31T07:39:35.722Z,998.84
2017-12-31T07:39:36.411Z,998.84
2017-12-31T07:39:36.926Z,998.84
2017-12-31T07:39:37.523Z,998.84
2017-12-31T07:39:38.118Z,998.86
2017-12-31T07:39:38.728Z,998.85
2017-12-31T07:39:39.320Z,998.85
2017-12-31T07:39:39.942Z,998.84
2017-12-31T07:39:40.522Z,998.85
2017-12-31T07:39:41.121Z,998.85
2017-12-31T07:39:41.720Z,998.86
2017-12-31T07:39:42.320Z,998.88
2017-12-31T07:39:42.918Z,998.90
2017-12-31T07:39:43.521Z,998.86
2017-12-31T07:41:27.740Z,998.82
2017-12-31T07:41:28.295Z,998.81
2017-12-31T07:41:28.874Z,998.82
2017-12-31T07:41:29.477Z,998.79
2017-12-31T07:41:30.077Z,998.82
2017-12-31T07:41:30.674Z,998.77
2017-12-31T07:41:31.274Z,998.80
2017-12-31T07:42:26.252Z,998.80
2017-12-31T07:42:26.861Z,998.78
2017-12-31T07:42:27.446Z,998.80
2017-12-31T07:42:28.048Z,998.82
2017-12-31T07:42:28.645Z,998.83
2017-12-31T07:42:29.246Z,998.82
2017-12-31T07:45:12.144Z,998.82
2017-12-31T07:45:12.714Z,998.81
2017-12-31T07:45:13.321Z,998.82
2017-12-31T07:45:13.918Z,998.82
2017-12-31T07:45:14.517Z,998.81
2017-12-31T07:45:15.115Z,998.81
2017-12-31T07:45:15.710Z,998.84
2017-12-31T07:45:16.311Z,998.80
2017-12-31T07:45:16.910Z,998.83
2017-12-31T07:45:17.509Z,998.83
2017-12-31T07:45:18.111Z,998.82
2017-12-31T07:45:18.710Z,998.85
2017-12-31T08:06:46.611Z,998.54
2017-12-31T08:06:47.182Z,998.50
2017-12-31T08:06:47.782Z,998.49
2017-12-31T08:06:48.379Z,998.52
2017-12-31T08:06:48.979Z,998.50
2017-12-31T08:06:49.580Z,998.52
2017-12-31T08:06:50.182Z,998.54
2017-12-31T08:06:50.779Z,998.52
2017-12-31T08:06:51.377Z,998.52
2017-12-31T08:06:51.979Z,998.51
2017-12-31T08:06:52.578Z,998.54
2017-12-31T08:06:53.178Z,998.51
2017-12-31T08:06:53.777Z,998.53
2017-12-31T08:06:54.376Z,998.51
2017-12-31T08:06:54.976Z,998.52
2017-12-31T08:06:55.578Z,998.55
2017-12-31T08:10:25.369Z,998.53
2017-12-31T08:10:25.878Z,998.52
2017-12-31T08:12:56.468Z,998.54
2017-12-31T08:12:56.973Z,998.54
2017-12-31T08:12:57.573Z,998.55
2017-12-31T08:13:51.654Z,998.52
2017-12-31T08:13:52.251Z,998.50
2017-12-31T08:13:52.851Z,998.52
2017-12-31T08:13:53.453Z,998.53
2017-12-31T08:13:54.048Z,998.55
2017-12-31T08:13:54.649Z,998.52
2017-12-31T08:13:55.246Z,998.55
2017-12-31T08:13:55.847Z,998.54
2017-12-31T08:15:45.927Z,998.51
2017-12-31T08:15:46.434Z,998.51
2017-12-31T08:15:47.032Z,998.51
2017-12-31T08:15:47.632Z,998.52
2017-12-31T08:15:48.234Z,998.50
2017-12-31T08:15:48.830Z,998.49
2017-12-31T08:15:49.430Z,998.51
2017-12-31T08:15:50.030Z,998.49
2017-12-31T08:15:50.629Z,998.49
2017-12-31T08:15:51.232Z,998.52
2017-12-31T08:15:51.831Z,998.52
2017-12-31T08:15:52.429Z,998.53
2017-12-31T08:15:53.031Z,998.53
2017-12-31T08:15:53.629Z,998.53
2017-12-31T08:16:54.645Z,998.49
2017-12-31T08:16:55.241Z,998.49
2017-12-31T08:16:55.841Z,998.47
2017-12-31T08:16:56.440Z,998.52
2017-12-31T08:16:57.040Z,998.50
2017-12-31T08:16:57.639Z,998.49
2017-12-31T08:16:58.240Z,998.49
2017-12-31T08:16:58.840Z,998.50
2017-12-31T08:16:59.440Z,998.50
2017-12-31T08:17:00.041Z,998.49
2017-12-31T08:17:00.638Z,998.49
2017-12-31T08:17:01.239Z,998.52
2017-12-31T08:17:55.267Z,998.51
2017-12-31T08:17:55.862Z,998.51
2017-12-31T08:17:56.461Z,998.51
2017-12-31T08:17:57.075Z,998.50
2017-12-31T08:17:57.661Z,998.51
2017-12-31T08:17:58.264Z,998.51
2017-12-31T08:17:58.861Z,998.52
2017-12-31T08:18:57.426Z,998.47
2017-12-31T08:18:58.021Z,998.47
2017-12-31T08:18:58.619Z,998.47
2017-12-31T08:18:59.220Z,998.47
2017-12-31T08:18:59.822Z,998.45
2017-12-31T08:19:00.419Z,998.46
2017-12-31T08:19:01.018Z,998.46
2017-12-31T08:19:01.619Z,998.48
2017-12-31T08:19:02.219Z,998.45
2017-12-31T08:19:02.819Z,998.49
2017-12-31T08:19:03.419Z,998.47
2017-12-31T08:19:04.018Z,998.48
2017-12-31T08:19:04.618Z,998.47
2017-12-31T08:19:05.217Z,998.47
2017-12-31T08:19:05.820Z,998.47
2017-12-31T08:19:06.417Z,998.48
2017-12-31T08:20:21.497Z,998.46
2017-12-31T08:20:22.093Z,998.50
2017-12-31T08:20:22.690Z,998.47
2017-12-31T08:20:23.291Z,998.47
2017-12-31T08:20:23.892Z,998.50
2017-12-31T08:20:24.492Z,998.47
2017-12-31T08:21:30.456Z,998.49
2017-12-31T08:21:31.007Z,998.51
2017-12-31T08:21:31.605Z,998.53
2017-12-31T08:21:32.205Z,998.53
2017-12-31T08:21:32.806Z,998.52
2017-12-31T08:21:33.405Z,998.51
2017-12-31T08:22:47.425Z,998.51
2017-12-31T08:22:48.013Z,998.49
2017-12-31T08:22:48.615Z,998.51
2017-12-31T08:22:49.211Z,998.51
2017-12-31T08:22:49.811Z,998.49
2017-12-31T08:22:50.410Z,998.48
2017-12-31T08:22:51.010Z,998.50
2017-12-31T08:24:16.504Z,998.49
2017-12-31T08:24:17.114Z,998.47
2017-12-31T08:24:17.701Z,998.50
2017-12-31T08:24:18.344Z,998.51
2017-12-31T08:24:18.904Z,998.48
2017-12-31T08:25:13.951Z,998.45
2017-12-31T08:25:14.548Z,998.50
2017-12-31T08:25:15.147Z,998.50
2017-12-31T08:25:15.747Z,998.46
2017-12-31T08:25:16.346Z,998.47
2017-12-31T08:25:16.967Z,998.50
2017-12-31T08:26:26.552Z,998.47
2017-12-31T08:26:27.149Z,998.51
2017-12-31T08:26:27.749Z,998.47
2017-12-31T08:26:28.384Z,998.50
2017-12-31T08:26:28.951Z,998.46
2017-12-31T08:26:29.551Z,998.48
2017-12-31T08:26:30.147Z,998.51
2017-12-31T08:26:30.747Z,998.49
2017-12-31T08:26:31.348Z,998.48
2017-12-31T08:26:31.949Z,998.49
2017-12-31T08:26:32.548Z,998.49
2017-12-31T08:26:33.147Z,998.49
2017-12-31T08:26:33.751Z,998.47
2017-12-31T08:26:34.347Z,998.48
2017-12-31T08:26:34.946Z,998.51
2017-12-31T08:26:35.547Z,998.49
2017-12-31T08:27:31.088Z,998.46
2017-12-31T08:27:31.663Z,998.47
2017-12-31T08:27:32.261Z,998.48
2017-12-31T08:27:32.863Z,998.50
2017-12-31T08:27:33.459Z,998.51
2017-12-31T08:27:34.060Z,998.51
2017-12-31T08:28:40.083Z,998.49
2017-12-31T08:28:40.680Z,998.49
2017-12-31T08:28:41.279Z,998.50
2017-12-31T08:28:41.891Z,998.48
2017-12-31T08:28:42.484Z,998.51
2017-12-31T08:30:44.782Z,998.45
2017-12-31T08:30:45.382Z,998.47
2017-12-31T08:30:45.975Z,998.48
2017-12-31T08:30:46.577Z,998.46
2017-12-31T08:30:47.174Z,998.48
2017-12-31T08:30:47.772Z,998.47
2017-12-31T08:30:48.372Z,998.48
2017-12-31T08:30:48.974Z,998.45
2017-12-31T08:30:49.574Z,998.47
2017-12-31T08:30:50.173Z,998.47
2017-12-31T08:30:50.772Z,998.46
2017-12-31T08:30:51.371Z,998.52
2017-12-31T08:31:45.458Z,998.51
2017-12-31T08:31:46.027Z,998.49
2017-12-31T08:31:46.630Z,998.48
2017-12-31T08:31:47.226Z,998.47
2017-12-31T08:31:47.833Z,998.46
2017-12-31T08:31:48.428Z,998.46
2017-12-31T08:31:49.031Z,998.42
2017-12-31T08:32:45.540Z,998.47
2017-12-31T08:32:46.137Z,998.47
2017-12-31T08:32:46.736Z,998.47
2017-12-31T08:33:43.340Z,998.45
2017-12-31T08:33:43.887Z,998.46
2017-12-31T08:33:44.489Z,998.46
2017-12-31T08:34:41.049Z,998.43
2017-12-31T08:34:41.643Z,998.42
2017-12-31T08:34:42.242Z,998.44
2017-12-31T08:35:36.241Z,998.40
2017-12-31T08:35:36.836Z,998.43
2017-12-31T08:35:37.437Z,998.43
2017-12-31T08:35:38.037Z,998.43
2017-12-31T08:35:38.636Z,998.41
2017-12-31T08:35:39.250Z,998.41
2017-12-31T08:35:39.836Z,998.38
2017-12-31T08:36:33.426Z,998.34
2017-12-31T08:36:33.978Z,998.39
2017-12-31T08:36:34.578Z,998.37
2017-12-31T08:36:35.179Z,998.34
2017-12-31T08:36:35.778Z,998.36
2017-12-31T08:36:36.377Z,998.33
2017-12-31T08:36:36.976Z,998.37
2017-12-31T08:36:37.577Z,998.40
2017-12-31T08:37:34.106Z,998.36
2017-12-31T08:37:34.705Z,998.35
2017-12-31T08:37:35.301Z,998.36
2017-12-31T08:38:28.789Z,998.38
2017-12-31T08:38:29.383Z,998.35
2017-12-31T08:38:29.983Z,998.34
2017-12-31T08:38:30.583Z,998.35
2017-12-31T08:38:31.198Z,998.37
2017-12-31T08:38:31.785Z,998.35
2017-12-31T08:38:32.384Z,998.38
2017-12-31T08:38:32.983Z,998.37
2017-12-31T08:39:27.053Z,998.37
2017-12-31T08:39:27.652Z,998.34
2017-12-31T08:39:28.250Z,998.30
2017-12-31T08:39:28.851Z,998.35
2017-12-31T08:39:29.450Z,998.35
2017-12-31T08:39:30.050Z,998.33
2017-12-31T08:39:30.653Z,998.36
2017-12-31T08:40:24.703Z,998.31
2017-12-31T08:40:25.301Z,998.30
2017-12-31T08:40:25.902Z,998.31
2017-12-31T08:40:26.501Z,998.31
2017-12-31T08:40:27.101Z,998.31
2017-12-31T08:40:27.704Z,998.27
2017-12-31T08:40:28.302Z,998.29
2017-12-31T08:41:23.379Z,998.30
2017-12-31T08:41:23.977Z,998.31
2017-12-31T08:41:24.576Z,998.28
2017-12-31T08:41:25.174Z,998.29
2017-12-31T08:41:25.777Z,998.28
2017-12-31T08:41:26.378Z,998.29
2017-12-31T08:42:28.447Z,998.34
2017-12-31T08:42:28.952Z,998.30
2017-12-31T08:42:29.552Z,998.28
2017-12-31T08:42:30.151Z,998.28
2017-12-31T08:42:30.753Z,998.32
2017-12-31T08:42:31.350Z,998.27
2017-12-31T08:42:31.955Z,998.26
2017-12-31T08:42:32.551Z,998.29
2017-12-31T08:42:33.150Z,998.27
2017-12-31T08:42:33.752Z,998.25
2017-12-31T08:42:34.350Z,998.29
2017-12-31T08:42:34.951Z,998.25
2017-12-31T08:43:31.997Z,998.23
2017-12-31T08:43:32.592Z,998.27
2017-12-31T08:43:33.191Z,998.27
2017-12-31T08:44:28.214Z,998.26
2017-12-31T08:44:28.810Z,998.24
2017-12-31T08:44:29.426Z,998.27
2017-12-31T08:44:30.010Z,998.23
2017-12-31T08:44:30.610Z,998.26
2017-12-31T08:44:31.210Z,998.26
2017-12-31T08:45:25.762Z,998.29
2017-12-31T08:45:26.359Z,998.27
2017-12-31T08:45:26.959Z,998.28
2017-12-31T08:45:27.559Z,998.26
2017-12-31T08:45:28.161Z,998.27
2017-12-31T08:45:28.759Z,998.32
2017-12-31T08:45:29.357Z,998.30
2017-12-31T08:46:23.417Z,998.30
2017-12-31T08:46:24.010Z,998.30
2017-12-31T08:46:24.611Z,998.32
2017-12-31T08:46:25.211Z,998.30
2017-12-31T08:46:25.819Z,998.30
2017-12-31T08:46:26.411Z,998.31
2017-12-31T08:46:27.014Z,998.29
2017-12-31T08:47:21.095Z,998.28
2017-12-31T08:47:21.661Z,998.28
2017-12-31T08:47:22.271Z,998.26
2017-12-31T08:47:22.861Z,998.28
2017-12-31T08:47:23.464Z,998.24
2017-12-31T08:47:24.067Z,998.26
2017-12-31T08:47:24.661Z,998.23
2017-12-31T08:48:18.717Z,998.25
2017-12-31T08:48:19.314Z,998.27
2017-12-31T08:48:19.915Z,998.26
2017-12-31T08:48:20.514Z,998.26
2017-12-31T08:48:21.119Z,998.25
2017-12-31T08:48:21.718Z,998.26
2017-12-31T08:48:22.312Z,998.25
2017-12-31T08:49:16.370Z,998.27
2017-12-31T08:49:16.965Z,998.27
2017-12-31T08:49:17.579Z,998.23
2017-12-31T08:49:18.164Z,998.27
2017-12-31T08:49:18.768Z,998.28
2017-12-31T08:49:19.364Z,998.26
2017-12-31T08:49:19.963Z,998.28
2017-12-31T09:09:47.565Z,998.23
2017-12-31T09:09:48.124Z,998.23
2017-12-31T09:09:48.723Z,998.17
2017-12-31T09:09:49.323Z,998.24
2017-12-31T09:09:49.935Z,998.25
2017-12-31T09:09:50.523Z,998.22
2017-12-31T09:09:51.122Z,998.25
2017-12-31T09:09:51.727Z,998.23
2017-12-31T09:09:52.323Z,998.20
2017-12-31T09:09:52.921Z,998.21
2017-12-31T09:10:51.580Z,998.19
2017-12-31T09:10:52.129Z,998.21
2017-12-31T09:10:52.744Z,998.15
2017-12-31T09:10:53.328Z,998.22
2017-12-31T09:10:53.929Z,998.22
2017-12-31T09:10:54.530Z,998.20
2017-12-31T09:10:55.127Z,998.20
2017-12-31T09:10:55.726Z,998.24
2017-12-31T09:10:56.326Z,998.17
2017-12-31T09:10:56.993Z,998.19
2017-12-31T09:10:57.525Z,998.23
2017-12-31T09:10:58.125Z,998.22
2017-12-31T09:10:58.729Z,998.23
2017-12-31T09:10:59.324Z,998.22
2017-12-31T09:10:59.923Z,998.22
2017-12-31T09:11:00.528Z,998.23
2017-12-31T10:16:32.542Z,997.61
2017-12-31T10:16:33.108Z,997.57
2017-12-31T10:16:33.711Z,997.56
2017-12-31T10:16:34.308Z,997.58
2017-12-31T10:16:34.910Z,997.58
2017-12-31T10:16:35.507Z,997.60
2017-12-31T10:16:36.107Z,997.60
2017-12-31T10:16:36.710Z,997.58
2017-12-31T10:16:37.307Z,997.61
2017-12-31T10:16:37.906Z,997.63
2017-12-31T10:16:38.507Z,997.59
2017-12-31T10:16:39.108Z,997.61
2017-12-31T10:17:34.180Z,997.64
2017-12-31T10:17:34.774Z,997.63
2017-12-31T10:17:35.376Z,997.65
2017-12-31T10:17:35.971Z,997.65